الصفحة الرئيسية
METAR-TAF:

METAR-TAF

مطار :

ريغا, لاتفيا

دائرة عرض: 56-55N, خط طول: 023-58E, ارتفاع: 10 متر

مراقبة الطقس الحالي

تاريخ ووقت الإصدار 22 دقيقة قبل الساعة 11:20UTC
ريح 12 عقدة من الشمال/الشمال الغربي
درجة الحرارة 23°درجة مئوية
الرطوبة 57%
ضغط 1026 hPa
الرؤية 10 كم أو أكثر
الغيوم لا تقل 1500 م ولا وجود لمزنة ركامية السحاب الأسود

METAR: EVRA 271120Z 34012KT CAVOK 23/14 Q1026 NOSIG

زمن: 14:42 (11:42 UTC)

توقعات

تاريخ ووقت الإصدار 42 دقيقة قبل الساعة 11:00UTC
التوقعات صالحة من27 الساعة 12 UTC إلى 28 الساعة 12 UTC
ريح 10 عقدة من الشمال
الرؤية 10 كم أو أكثر
الغيوم لا تقل 1500 م ولا وجود لمزنة ركامية السحاب الأسود
أصبح
من 27 الساعة 20 UTC إلى 27 الساعة 22 UTC
ريح 5 عقدة من الشرق/الشمال الشرقي
نظرية الاحتمالات 40% :
مؤقت
من 27 الساعة 23 UTC إلى 28 الساعة 04 UTC
الرؤية: 3000 متر
غشاء

TAF: EVRA 271100Z 2712/2812 35010KT CAVOK BECMG 2720/2722 07005KT PROB40 TEMPO 2723/2804 3000 BR

أرصاد الطقس والتوقعات من أكثر من 4000 مطار (تقارير الطقس للمطار METAR والتنبؤ بالطقس بالمطارTAF).

المحطات المتاحة هي النقط الصفراء والحمراء على الخريطة.

حرك المؤشر فوق النقطة لمعرفة اسم المحطة.

ثم انقر لمعرفة أرصاد وتوقعات الطقس.

لتغيير الخارطة: اضغط على الأزرار الخضراء مع رمز الصليب الأسود للتكبير. على الزر الأخضر مع شرطة للتصغير، أو على الأسهم الخضراء للخرائط المجاورة.


METAR-TAF: